createdAt,value
2023-07-03T00:00:22.249Z,2.03
2023-07-03T00:01:22.293Z,2.03
2023-07-03T00:02:22.748Z,2.00
2023-07-03T00:03:22.376Z,2.07
2023-07-03T00:04:22.468Z,2.08
2023-07-03T00:05:22.589Z,2.07
2023-07-03T00:06:22.536Z,2.08
2023-07-03T00:07:22.539Z,2.04
2023-07-03T00:08:22.590Z,2.09
2023-07-03T00:09:22.653Z,2.05
2023-07-03T00:10:22.693Z,2.01
2023-07-03T00:11:22.731Z,2.05
2023-07-03T00:12:22.815Z,2.05
2023-07-03T00:13:22.890Z,2.02
2023-07-03T00:14:22.916Z,2.01
2023-07-03T00:15:22.968Z,1.99
2023-07-03T00:16:23.067Z,1.98
2023-07-03T00:17:23.126Z,1.95
2023-07-03T00:18:23.130Z,1.97
2023-07-03T00:19:23.164Z,1.98
2023-07-03T00:20:23.230Z,2.01
2023-07-03T00:21:23.290Z,1.99
2023-07-03T00:22:23.337Z,2.04
2023-07-03T00:23:23.366Z,2.12
2023-07-03T00:24:23.454Z,2.10
2023-07-03T00:25:23.533Z,2.07
2023-07-03T00:26:23.542Z,2.08
2023-07-03T00:27:23.613Z,2.07
2023-07-03T00:28:23.673Z,2.02
2023-07-03T00:29:23.711Z,2.02
2023-07-03T00:30:23.782Z,1.99
2023-07-03T00:31:23.930Z,2.04
2023-07-03T00:32:23.898Z,1.96
2023-07-03T00:33:23.983Z,1.85
2023-07-03T00:34:24.019Z,1.82
2023-07-03T00:35:24.061Z,1.86
2023-07-03T00:36:24.129Z,1.83
2023-07-03T00:37:24.178Z,1.85
2023-07-03T00:38:24.213Z,1.80
2023-07-03T00:39:24.273Z,1.75
2023-07-03T00:40:24.330Z,1.78
2023-07-03T00:41:24.412Z,1.74
2023-07-03T00:42:24.434Z,1.75
2023-07-03T00:43:24.522Z,1.78
2023-07-03T00:44:24.559Z,1.77
2023-07-03T00:45:24.636Z,1.80
2023-07-03T00:46:24.687Z,1.80
2023-07-03T00:47:24.786Z,1.76
2023-07-03T00:48:24.779Z,1.70
2023-07-03T00:49:24.843Z,1.75
2023-07-03T00:50:24.889Z,1.78
2023-07-03T00:51:24.904Z,1.77
2023-07-03T00:52:24.977Z,1.77
2023-07-03T00:53:25.052Z,1.75
2023-07-03T00:54:25.055Z,1.80
2023-07-03T00:55:25.152Z,1.77
2023-07-03T00:56:25.224Z,1.77
2023-07-03T00:57:25.256Z,1.82
2023-07-03T00:58:25.311Z,1.79
2023-07-03T00:59:25.399Z,1.77
2023-07-03T01:00:25.430Z,1.75
2023-07-03T01:01:25.531Z,1.77
2023-07-03T01:02:25.587Z,1.78
2023-07-03T01:03:25.681Z,1.74
2023-07-03T01:04:25.806Z,1.73
2023-07-03T01:05:25.925Z,1.75
2023-07-03T01:06:25.782Z,1.71
2023-07-03T01:07:25.846Z,1.74
2023-07-03T01:08:25.923Z,1.81
2023-07-03T01:09:25.995Z,1.83
2023-07-03T01:10:26.054Z,1.75
2023-07-03T01:11:26.108Z,1.79
2023-07-03T01:12:26.168Z,1.73
2023-07-03T01:13:26.238Z,1.74
2023-07-03T01:14:26.306Z,1.75
2023-07-03T01:15:26.328Z,1.77
2023-07-03T01:16:26.451Z,1.78
2023-07-03T01:17:26.519Z,1.79
2023-07-03T01:18:26.538Z,1.80
2023-07-03T01:19:26.578Z,1.82
2023-07-03T01:20:26.671Z,1.77
2023-07-03T01:21:26.732Z,1.81
2023-07-03T01:22:26.737Z,1.82
2023-07-03T01:23:26.758Z,1.81
2023-07-03T01:24:26.848Z,1.85
2023-07-03T01:25:26.829Z,1.86
2023-07-03T01:26:26.863Z,1.87
2023-07-03T01:27:26.971Z,1.87
2023-07-03T01:28:26.892Z,1.91
2023-07-03T01:29:26.944Z,1.89
2023-07-03T01:30:26.926Z,1.94
2023-07-03T01:31:26.958Z,1.91
2023-07-03T01:32:26.990Z,1.93
2023-07-03T01:33:27.001Z,1.95
2023-07-03T01:34:27.028Z,1.92
2023-07-03T01:35:27.038Z,1.88
2023-07-03T01:36:27.126Z,1.89
2023-07-03T01:37:27.113Z,1.86
2023-07-03T01:38:27.162Z,1.85
2023-07-03T01:39:27.190Z,1.90
2023-07-03T01:40:27.212Z,1.90
2023-07-03T01:41:27.248Z,1.91
2023-07-03T01:42:27.243Z,1.93
2023-07-03T01:43:27.309Z,1.92
2023-07-03T01:44:27.326Z,1.94
2023-07-03T01:45:27.298Z,1.93
2023-07-03T01:46:27.382Z,1.87
2023-07-03T01:47:27.407Z,1.89
2023-07-03T01:48:27.344Z,1.88
2023-07-03T01:49:27.364Z,1.83
2023-07-03T01:50:27.374Z,1.81
2023-07-03T01:51:27.338Z,1.86
2023-07-03T01:52:27.319Z,1.88
2023-07-03T01:53:27.337Z,1.85
2023-07-03T01:54:27.346Z,1.81
2023-07-03T01:55:27.325Z,1.82
2023-07-03T01:56:27.329Z,1.75
2023-07-03T01:57:27.370Z,1.76
2023-07-03T01:58:27.439Z,1.76
2023-07-03T01:59:27.362Z,1.82
2023-07-03T02:00:27.433Z,1.88
2023-07-03T02:01:27.454Z,1.80
2023-07-03T02:02:27.501Z,1.78
2023-07-03T02:03:27.479Z,1.78
2023-07-03T02:04:27.431Z,1.78
2023-07-03T02:05:27.408Z,1.77
2023-07-03T02:06:27.420Z,1.80
2023-07-03T02:07:27.405Z,1.83
2023-07-03T02:08:27.408Z,1.84
2023-07-03T02:09:27.431Z,1.84
2023-07-03T02:10:27.407Z,1.83
2023-07-03T02:11:27.438Z,1.84
2023-07-03T02:12:27.441Z,1.87
2023-07-03T02:13:27.488Z,1.87
2023-07-03T02:14:27.527Z,1.91
2023-07-03T02:15:27.557Z,1.92
2023-07-03T02:16:27.618Z,1.96
2023-07-03T02:17:27.594Z,1.97
2023-07-03T02:18:27.564Z,2.01
2023-07-03T02:19:27.560Z,2.02
2023-07-03T02:20:27.574Z,2.04
2023-07-03T02:21:27.572Z,1.99
2023-07-03T02:22:27.596Z,2.00
2023-07-03T02:23:27.573Z,2.02
2023-07-03T02:24:27.629Z,2.03
2023-07-03T02:25:27.610Z,2.01
2023-07-03T02:26:27.633Z,2.02
2023-07-03T02:27:27.647Z,2.03
2023-07-03T02:28:27.665Z,2.01
2023-07-03T02:29:27.650Z,2.00
2023-07-03T02:30:27.752Z,1.97
2023-07-03T02:31:27.792Z,1.97
2023-07-03T02:32:27.724Z,1.92
2023-07-03T02:33:27.709Z,1.95
2023-07-03T02:34:27.714Z,1.96
2023-07-03T02:35:27.696Z,1.98
2023-07-03T02:36:27.718Z,1.98
2023-07-03T02:37:27.754Z,1.95
2023-07-03T02:38:27.741Z,1.95
2023-07-03T02:39:27.772Z,1.99
2023-07-03T02:40:27.778Z,1.97
2023-07-03T02:41:27.807Z,1.97
2023-07-03T02:42:27.814Z,1.98
2023-07-03T02:43:27.790Z,2.01
2023-07-03T02:44:27.856Z,1.96
2023-07-03T02:45:27.813Z,1.97
2023-07-03T02:46:27.842Z,2.00
2023-07-03T02:47:28.073Z,2.02
2023-07-03T02:48:27.873Z,1.95
2023-07-03T02:49:27.956Z,1.98
2023-07-03T02:50:27.901Z,1.98
2023-07-03T02:51:27.934Z,1.93
2023-07-03T02:52:27.936Z,1.94
2023-07-03T02:53:27.987Z,1.94
2023-07-03T02:54:27.939Z,1.94
2023-07-03T02:55:27.983Z,1.90
2023-07-03T02:56:28.009Z,1.93
2023-07-03T02:57:27.972Z,1.90
2023-07-03T02:58:28.057Z,1.90
2023-07-03T02:59:28.043Z,1.86
2023-07-03T03:00:28.048Z,1.83
2023-07-03T03:01:28.065Z,1.85
2023-07-03T03:02:28.089Z,1.86
2023-07-03T03:03:28.188Z,1.86
2023-07-03T03:04:28.066Z,1.82
2023-07-03T03:05:28.075Z,1.81
2023-07-03T03:06:28.080Z,1.84
2023-07-03T03:07:28.124Z,1.82
2023-07-03T03:08:28.127Z,1.79
2023-07-03T03:09:28.154Z,1.80
2023-07-03T03:10:28.147Z,1.84
2023-07-03T03:11:28.167Z,1.86
2023-07-03T03:12:28.201Z,1.84
2023-07-03T03:13:28.198Z,1.80
2023-07-03T03:14:28.288Z,1.78
2023-07-03T03:15:28.268Z,1.77
2023-07-03T03:16:28.292Z,1.74
2023-07-03T03:17:28.301Z,1.75
2023-07-03T03:18:28.305Z,1.78
2023-07-03T03:19:28.265Z,1.70
2023-07-03T03:20:28.322Z,1.71
2023-07-03T03:21:28.311Z,1.68
2023-07-03T03:22:28.281Z,1.69
2023-07-03T03:23:28.309Z,1.71
2023-07-03T03:24:28.342Z,1.71
2023-07-03T03:25:28.340Z,1.72
2023-07-03T03:26:28.352Z,1.71
2023-07-03T03:27:28.331Z,1.69
2023-07-03T03:28:28.365Z,1.68
2023-07-03T03:29:28.331Z,1.68
2023-07-03T03:30:28.391Z,1.68
2023-07-03T03:31:28.389Z,1.67
2023-07-03T03:32:28.417Z,1.67
2023-07-03T03:33:28.359Z,1.69
2023-07-03T03:34:28.393Z,1.72
2023-07-03T03:35:28.395Z,1.68
2023-07-03T03:36:28.403Z,1.66
2023-07-03T03:37:28.404Z,1.67
2023-07-03T03:38:28.397Z,1.68
2023-07-03T03:39:28.392Z,1.70
2023-07-03T03:40:28.411Z,1.74
2023-07-03T03:41:28.421Z,1.76
2023-07-03T03:42:28.430Z,1.82
2023-07-03T03:43:28.477Z,1.79
2023-07-03T03:44:28.449Z,1.78
2023-07-03T03:45:28.462Z,1.84
2023-07-03T03:46:28.476Z,1.80
2023-07-03T03:47:28.482Z,1.82
2023-07-03T03:48:28.528Z,1.85
2023-07-03T03:49:28.457Z,1.90
2023-07-03T03:50:28.461Z,1.92
2023-07-03T03:51:28.511Z,1.96
2023-07-03T03:52:28.467Z,1.98
2023-07-03T03:53:28.479Z,1.98
2023-07-03T03:54:28.483Z,1.99
2023-07-03T03:55:28.490Z,1.98
2023-07-03T03:56:28.478Z,1.96
2023-07-03T03:57:28.507Z,1.98
2023-07-03T03:58:28.508Z,1.98
2023-07-03T03:59:28.485Z,1.99
2023-07-03T04:00:28.557Z,1.96
2023-07-03T04:01:28.531Z,1.98
2023-07-03T04:02:28.525Z,1.95
2023-07-03T04:03:28.560Z,1.94
2023-07-03T04:04:28.532Z,1.93
2023-07-03T04:05:28.524Z,1.94
2023-07-03T04:06:28.557Z,1.94
2023-07-03T04:07:28.541Z,1.91
2023-07-03T04:08:28.576Z,1.91
2023-07-03T04:09:28.582Z,1.91
2023-07-03T04:10:28.586Z,1.89
2023-07-03T04:11:28.578Z,1.87
2023-07-03T04:12:28.598Z,1.88
2023-07-03T04:13:28.642Z,1.85
2023-07-03T04:14:28.631Z,1.84
2023-07-03T04:15:28.623Z,1.80
2023-07-03T04:16:28.686Z,1.79
2023-07-03T04:17:28.697Z,1.78
2023-07-03T04:18:28.630Z,1.75
2023-07-03T04:19:28.746Z,1.74
2023-07-03T04:20:28.675Z,1.74
2023-07-03T04:21:28.701Z,1.73
2023-07-03T04:22:28.722Z,1.72
2023-07-03T04:23:28.745Z,1.68
2023-07-03T04:24:28.760Z,1.67
2023-07-03T04:25:28.742Z,1.69
2023-07-03T04:26:28.787Z,1.69
2023-07-03T04:27:28.799Z,1.69
2023-07-03T04:28:28.831Z,1.69
2023-07-03T04:29:28.825Z,1.70
2023-07-03T04:30:28.847Z,1.72
2023-07-03T04:31:28.931Z,1.70
2023-07-03T04:32:28.893Z,1.73
2023-07-03T04:33:28.875Z,1.73
2023-07-03T04:34:28.891Z,1.72
2023-07-03T04:35:28.919Z,1.71
2023-07-03T04:36:28.926Z,1.73
2023-07-03T04:37:28.950Z,1.73
2023-07-03T04:38:28.964Z,1.72
2023-07-03T04:39:28.997Z,1.74
2023-07-03T04:40:30.870Z,1.75
2023-07-03T04:41:29.033Z,1.72
2023-07-03T04:42:29.075Z,1.72
2023-07-03T04:43:29.041Z,1.73
2023-07-03T04:44:29.153Z,1.73
2023-07-03T04:45:29.090Z,1.73
2023-07-03T04:46:29.171Z,1.73
2023-07-03T04:47:29.212Z,1.75
2023-07-03T04:48:29.162Z,1.73
2023-07-03T04:49:29.195Z,1.75
2023-07-03T04:50:29.209Z,1.77
2023-07-03T04:51:29.250Z,1.79
2023-07-03T04:52:29.253Z,1.80
2023-07-03T04:53:29.288Z,1.80
2023-07-03T04:54:29.307Z,1.79
2023-07-03T04:55:29.355Z,1.81
2023-07-03T04:56:29.409Z,1.79
2023-07-03T04:57:29.418Z,1.82
2023-07-03T04:58:29.394Z,1.81
2023-07-03T04:59:29.428Z,1.83
2023-07-03T05:00:29.512Z,1.82
2023-07-03T05:01:29.493Z,1.83
2023-07-03T05:02:31.824Z,1.84
2023-07-03T05:03:29.545Z,1.90
2023-07-03T05:04:29.493Z,1.88
2023-07-03T05:05:29.517Z,1.90
2023-07-03T05:06:29.522Z,1.88
2023-07-03T05:07:29.529Z,1.90
2023-07-03T05:08:29.537Z,1.91
2023-07-03T05:09:29.531Z,1.91
2023-07-03T05:10:29.529Z,1.93
2023-07-03T05:11:29.552Z,1.93
2023-07-03T05:12:29.528Z,1.97
2023-07-03T05:13:29.567Z,1.95
2023-07-03T05:14:29.589Z,2.00
2023-07-03T05:15:29.563Z,1.97
2023-07-03T05:16:29.883Z,1.98
2023-07-03T05:17:29.597Z,1.97
2023-07-03T05:18:29.592Z,1.97
2023-07-03T05:19:29.626Z,1.96
2023-07-03T05:20:29.614Z,1.99
2023-07-03T05:21:29.611Z,1.94
2023-07-03T05:22:29.645Z,1.99
2023-07-03T05:23:29.654Z,1.98
2023-07-03T05:24:29.640Z,2.02
2023-07-03T05:25:29.653Z,2.03
2023-07-03T05:26:29.656Z,2.03
2023-07-03T05:27:29.658Z,2.04
2023-07-03T05:28:29.636Z,2.05
2023-07-03T05:29:29.682Z,2.04
2023-07-03T05:30:29.677Z,2.04
2023-07-03T05:31:29.906Z,2.01
2023-07-03T05:32:29.683Z,2.01
2023-07-03T05:33:29.679Z,2.04
2023-07-03T05:34:29.732Z,2.01
2023-07-03T05:35:29.719Z,2.01
2023-07-03T05:36:29.750Z,2.05
2023-07-03T05:37:29.801Z,2.07
2023-07-03T05:38:29.838Z,2.11
2023-07-03T05:39:32.585Z,2.12
2023-07-03T05:40:29.831Z,2.18
2023-07-03T05:41:29.832Z,2.26
2023-07-03T05:42:29.805Z,2.28
2023-07-03T05:43:29.818Z,2.38
2023-07-03T05:44:29.804Z,2.39
2023-07-03T05:45:29.797Z,2.48
2023-07-03T05:46:29.793Z,2.49
2023-07-03T05:47:29.768Z,2.57
2023-07-03T05:48:29.720Z,2.63
2023-07-03T05:49:29.737Z,2.75
2023-07-03T05:50:29.730Z,2.78
2023-07-03T05:51:29.726Z,2.89
2023-07-03T05:52:29.697Z,3.12
2023-07-03T05:53:29.658Z,3.07
2023-07-03T05:54:29.646Z,3.09
2023-07-03T05:55:29.651Z,3.14
2023-07-03T05:56:29.712Z,3.15
2023-07-03T05:57:29.694Z,3.29
2023-07-03T05:58:29.640Z,3.40
2023-07-03T05:59:29.613Z,3.78
2023-07-03T06:00:29.598Z,3.75
2023-07-03T06:01:29.691Z,3.74
2023-07-03T06:02:29.599Z,3.84
2023-07-03T06:03:29.633Z,3.92
2023-07-03T06:04:29.594Z,4.04
2023-07-03T06:05:29.588Z,4.20
2023-07-03T06:06:29.554Z,4.21
2023-07-03T06:07:29.549Z,4.38
2023-07-03T06:08:29.556Z,4.30
2023-07-03T06:09:29.550Z,4.19
2023-07-03T06:10:29.595Z,4.20
2023-07-03T06:11:29.524Z,4.15
2023-07-03T06:12:29.508Z,4.31
2023-07-03T06:13:29.501Z,4.37
2023-07-03T06:14:29.523Z,4.33
2023-07-03T06:15:29.489Z,4.39
2023-07-03T06:16:29.468Z,4.88
2023-07-03T06:17:29.511Z,5.26
2023-07-03T06:18:29.446Z,5.61
2023-07-03T06:19:29.455Z,5.87
2023-07-03T06:20:29.464Z,6.14
2023-07-03T06:21:29.417Z,5.98
2023-07-03T06:22:29.387Z,6.06
2023-07-03T06:23:29.390Z,5.81
2023-07-03T06:24:29.373Z,5.81
2023-07-03T06:25:29.353Z,5.75
2023-07-03T06:26:29.351Z,6.18
2023-07-03T06:27:29.329Z,6.39
2023-07-03T06:28:29.322Z,6.49
2023-07-03T06:29:29.321Z,6.32
2023-07-03T06:30:29.374Z,6.49
2023-07-03T06:31:29.351Z,6.50
2023-07-03T06:32:29.288Z,6.69
2023-07-03T06:33:29.263Z,6.82
2023-07-03T06:34:29.228Z,6.85
2023-07-03T06:35:29.291Z,6.89
2023-07-03T06:36:29.224Z,6.93
2023-07-03T06:37:29.338Z,6.96
2023-07-03T06:38:29.201Z,6.80
2023-07-03T06:39:29.139Z,7.09
2023-07-03T06:40:29.255Z,6.75
2023-07-03T06:41:29.107Z,7.07
2023-07-03T06:42:29.121Z,7.24
2023-07-03T06:43:29.075Z,7.20
2023-07-03T06:44:29.077Z,7.35
2023-07-03T06:45:29.046Z,5.36
2023-07-03T06:46:29.095Z,4.26
2023-07-03T06:47:29.042Z,3.76
2023-07-03T06:48:29.005Z,3.70
2023-07-03T06:49:29.014Z,3.47
2023-07-03T06:50:29.041Z,3.58
2023-07-03T06:51:28.966Z,3.46
2023-07-03T06:52:28.945Z,3.55
2023-07-03T06:53:29.042Z,3.34
2023-07-03T06:54:28.989Z,3.45
2023-07-03T06:55:28.918Z,3.45
2023-07-03T06:56:28.927Z,3.56
2023-07-03T06:57:28.865Z,3.64
2023-07-03T06:58:28.880Z,3.48
2023-07-03T06:59:28.908Z,3.40
2023-07-03T07:00:28.957Z,3.35
2023-07-03T07:01:28.960Z,3.27
2023-07-03T07:02:28.985Z,3.05
2023-07-03T07:03:29.061Z,3.04
2023-07-03T07:04:29.902Z,2.89
2023-07-03T07:05:29.049Z,2.68
2023-07-03T07:06:29.083Z,2.72
2023-07-03T07:07:29.086Z,2.95
2023-07-03T07:08:29.072Z,2.68
2023-07-03T07:09:29.239Z,2.46
2023-07-03T07:10:29.108Z,2.56
2023-07-03T07:11:29.110Z,2.55
2023-07-03T07:12:29.133Z,2.41
2023-07-03T07:13:29.188Z,2.36
2023-07-03T07:14:29.151Z,2.34
2023-07-03T07:15:29.193Z,2.47
2023-07-03T07:16:29.265Z,2.48
2023-07-03T07:17:45.890Z,2.12
2023-07-03T07:18:30.206Z,2.12
2023-07-03T07:19:29.202Z,2.07
2023-07-03T07:20:29.151Z,2.03
2023-07-03T07:21:29.170Z,1.89
2023-07-03T07:22:29.130Z,1.67
2023-07-03T07:23:29.134Z,1.61
2023-07-03T07:24:29.174Z,1.62
2023-07-03T07:25:29.188Z,1.71
2023-07-03T07:26:29.161Z,1.71
2023-07-03T07:27:29.133Z,1.46
2023-07-03T07:28:29.168Z,1.49
2023-07-03T07:29:29.111Z,1.47
2023-07-03T07:30:29.139Z,1.60
2023-07-03T07:31:29.166Z,1.38
2023-07-03T07:32:29.155Z,1.46
2023-07-03T07:33:29.132Z,1.30
2023-07-03T07:34:29.151Z,1.36
2023-07-03T07:36:47.257Z,0.50
2023-07-03T07:37:47.249Z,0.50
2023-07-03T07:38:47.233Z,0.50
2023-07-03T07:39:47.217Z,0.50
2023-07-03T07:40:47.337Z,0.50
2023-07-03T07:41:47.259Z,0.53
2023-07-03T07:42:47.262Z,0.50
2023-07-03T07:43:47.233Z,0.53
2023-07-03T07:44:47.234Z,0.66
2023-07-03T07:45:47.238Z,0.77
2023-07-03T07:46:47.496Z,0.83
2023-07-03T07:47:47.317Z,0.93
2023-07-03T07:48:47.289Z,0.96
2023-07-03T07:49:47.234Z,1.09
2023-07-03T07:50:47.257Z,1.17
2023-07-03T07:51:47.244Z,1.14
2023-07-03T07:52:47.311Z,1.12
2023-07-03T07:53:47.241Z,1.22
2023-07-03T07:54:47.207Z,1.34
2023-07-03T07:55:47.233Z,1.39
2023-07-03T07:56:47.199Z,1.44
2023-07-03T07:57:47.207Z,1.62
2023-07-03T07:58:47.184Z,1.49
2023-07-03T07:59:47.161Z,1.53
2023-07-03T08:00:47.172Z,1.65
2023-07-03T08:01:47.163Z,1.48
2023-07-03T08:02:47.154Z,1.58
2023-07-03T08:03:47.194Z,1.47
2023-07-03T08:04:47.244Z,1.55
2023-07-03T08:05:47.098Z,1.73
2023-07-03T08:06:47.112Z,1.77
2023-07-03T08:07:47.067Z,1.64
2023-07-03T08:08:47.055Z,1.64
2023-07-03T08:09:47.075Z,1.68
2023-07-03T08:10:47.055Z,1.70
2023-07-03T08:11:47.072Z,1.74
2023-07-03T08:12:47.148Z,1.59
2023-07-03T08:13:47.060Z,1.58
2023-07-03T08:14:47.041Z,1.68
2023-07-03T08:15:47.020Z,1.69
2023-07-03T08:16:47.073Z,1.73
2023-07-03T08:17:47.996Z,1.69
2023-07-03T08:18:49.651Z,1.73
2023-07-03T08:19:47.012Z,1.72
2023-07-03T08:20:46.983Z,1.73
2023-07-03T08:21:47.023Z,1.85
2023-07-03T08:22:46.991Z,1.82
2023-07-03T08:23:46.979Z,1.81
2023-07-03T08:24:47.005Z,1.92
2023-07-03T08:25:46.974Z,1.81
2023-07-03T08:26:46.959Z,1.74
2023-07-03T08:27:46.984Z,1.59
2023-07-03T08:28:47.056Z,1.65
2023-07-03T08:29:46.937Z,1.67
2023-07-03T08:30:46.960Z,1.51
2023-07-03T08:31:46.945Z,1.57
2023-07-03T08:32:47.025Z,1.61
2023-07-03T08:33:46.967Z,1.54
2023-07-03T08:37:46.882Z,1.12
2023-07-03T08:38:46.896Z,0.97
2023-07-03T08:39:46.869Z,1.10
2023-07-03T08:40:46.844Z,1.27
2023-07-03T08:41:46.871Z,1.21
2023-07-03T08:42:46.854Z,1.20
2023-07-03T08:43:46.846Z,1.38
2023-07-03T08:44:46.928Z,1.57
2023-07-03T08:45:46.864Z,1.55
2023-07-03T08:46:55.451Z,1.79
2023-07-03T08:47:47.810Z,1.80
2023-07-03T08:48:46.794Z,1.87
2023-07-03T08:49:46.776Z,1.97
2023-07-03T08:50:46.759Z,2.20
2023-07-03T08:51:46.765Z,2.62
2023-07-03T08:52:46.760Z,2.95
2023-07-03T08:53:46.717Z,3.14
2023-07-03T08:54:46.724Z,3.29
2023-07-03T08:55:46.739Z,3.49
2023-07-03T08:56:46.697Z,3.59
2023-07-03T08:57:46.692Z,3.74
2023-07-03T08:58:46.706Z,3.92
2023-07-03T08:59:46.688Z,4.01
2023-07-03T09:00:46.745Z,4.03
2023-07-03T09:01:46.785Z,4.24
2023-07-03T09:02:46.748Z,4.36
2023-07-03T09:03:46.773Z,4.60
2023-07-03T09:04:46.680Z,4.82
2023-07-03T09:05:46.612Z,4.91
2023-07-03T09:06:46.609Z,5.01
2023-07-03T09:07:46.570Z,5.01
2023-07-03T09:08:46.575Z,5.24
2023-07-03T09:09:46.590Z,5.61
2023-07-03T09:10:46.619Z,5.65
2023-07-03T09:11:46.642Z,5.89
2023-07-03T09:12:46.622Z,5.96
2023-07-03T09:13:46.669Z,6.16
2023-07-03T09:14:46.677Z,6.30
2023-07-03T09:15:46.674Z,6.49
2023-07-03T09:16:46.794Z,6.70
2023-07-03T09:17:46.737Z,6.69
2023-07-03T09:18:47.080Z,6.81
2023-07-03T09:19:46.885Z,6.83
2023-07-03T09:20:46.749Z,6.93
2023-07-03T09:21:46.779Z,6.77
2023-07-03T09:22:46.798Z,6.95
2023-07-03T09:23:46.797Z,6.95
2023-07-03T09:24:46.797Z,7.16
2023-07-03T09:25:46.810Z,6.96
2023-07-03T09:26:47.852Z,7.08
2023-07-03T09:27:48.325Z,7.15
2023-07-03T09:28:46.832Z,7.41
2023-07-03T09:29:46.901Z,7.34
2023-07-03T09:30:47.763Z,7.14
2023-07-03T09:31:46.872Z,7.23
2023-07-03T09:32:46.940Z,6.53
2023-07-03T09:33:46.872Z,4.96
2023-07-03T09:34:46.793Z,4.06
2023-07-03T09:35:46.794Z,3.78
2023-07-03T09:36:46.805Z,3.86
2023-07-03T09:37:46.826Z,3.78
2023-07-03T09:38:46.825Z,3.62
2023-07-03T09:39:46.914Z,3.57
2023-07-03T09:40:47.058Z,3.09
2023-07-03T09:41:47.888Z,2.32
2023-07-03T09:42:49.744Z,2.41
2023-07-03T09:43:46.837Z,2.41
2023-07-03T09:44:46.917Z,2.44
2023-07-03T09:45:46.830Z,2.36
2023-07-03T09:46:46.840Z,2.09
2023-07-03T09:47:46.847Z,1.84
2023-07-03T09:48:47.037Z,1.78
2023-07-03T09:49:46.791Z,1.69
2023-07-03T09:51:04.936Z,1.68
2023-07-03T09:51:47.777Z,1.60
2023-07-03T09:52:59.605Z,1.49
2023-07-03T09:53:47.740Z,1.43
2023-07-03T09:54:46.737Z,1.29
2023-07-03T09:55:46.750Z,1.29
2023-07-03T09:56:46.722Z,1.39
2023-07-03T09:57:46.709Z,1.49
2023-07-03T09:58:46.692Z,1.49
2023-07-03T09:59:46.682Z,1.45
2023-07-03T10:00:48.424Z,1.38
2023-07-03T10:03:46.794Z,1.18
2023-07-03T10:06:46.730Z,1.22
2023-07-03T10:07:46.724Z,1.24
2023-07-03T10:08:46.813Z,1.25
2023-07-03T10:11:46.652Z,1.22
2023-07-03T10:12:46.602Z,1.16
2023-07-03T10:13:46.538Z,1.20
2023-07-03T10:14:46.548Z,1.21
2023-07-03T10:15:46.505Z,1.14
2023-07-03T10:16:46.594Z,1.01
2023-07-03T10:17:46.584Z,1.01
2023-07-03T10:18:46.487Z,1.00
2023-07-03T10:19:46.473Z,0.95
2023-07-03T10:20:46.564Z,0.86
2023-07-03T10:21:46.489Z,0.79
2023-07-03T10:22:46.470Z,0.77
2023-07-03T10:23:46.455Z,0.74
2023-07-03T10:24:46.476Z,0.74
2023-07-03T10:25:46.427Z,0.68
2023-07-03T10:26:46.443Z,0.64
2023-07-03T10:27:46.457Z,0.64
2023-07-03T10:28:46.466Z,0.65
2023-07-03T10:29:46.426Z,0.60
2023-07-03T10:30:46.413Z,0.64
2023-07-03T10:31:46.564Z,0.64
2023-07-03T10:32:46.451Z,0.64
2023-07-03T10:33:46.394Z,0.60
2023-07-03T10:34:46.406Z,0.57
2023-07-03T10:35:46.370Z,0.56
2023-07-03T10:36:46.447Z,0.56
2023-07-03T10:37:46.337Z,0.57
2023-07-03T10:38:46.364Z,0.56
2023-07-03T10:39:46.339Z,0.56
2023-07-03T10:40:46.324Z,0.56
2023-07-03T10:41:46.338Z,0.55
2023-07-03T10:42:46.329Z,0.53
2023-07-03T10:43:46.311Z,0.56
2023-07-03T10:44:46.292Z,0.59
2023-07-03T10:45:46.332Z,0.55
2023-07-03T10:46:46.375Z,0.51
2023-07-03T10:47:46.428Z,0.51
2023-07-03T10:48:46.285Z,0.53
2023-07-03T10:49:46.265Z,0.51
2023-07-03T10:50:46.280Z,0.51
2023-07-03T10:51:46.283Z,0.50
2023-07-03T10:52:46.421Z,0.51
2023-07-03T10:53:46.302Z,0.52
2023-07-03T10:54:46.337Z,0.50
2023-07-03T10:55:46.349Z,0.50
2023-07-03T10:56:46.314Z,0.50
2023-07-03T10:57:46.309Z,0.51
2023-07-03T10:58:46.322Z,0.50
2023-07-03T10:59:46.308Z,0.52
2023-07-03T11:00:46.344Z,0.52
2023-07-03T11:01:46.449Z,0.51
2023-07-03T11:02:46.424Z,0.53
2023-07-03T11:03:47.821Z,0.52
2023-07-03T11:04:46.437Z,0.52
2023-07-03T11:05:46.383Z,0.50
2023-07-03T11:06:46.380Z,0.51
2023-07-03T11:07:46.429Z,0.51
2023-07-03T11:08:46.495Z,0.50
2023-07-03T11:09:46.431Z,0.50
2023-07-03T11:10:46.411Z,0.51
2023-07-03T11:11:46.472Z,0.50
2023-07-03T11:12:46.451Z,0.50
2023-07-03T11:13:46.493Z,0.50
2023-07-03T11:14:46.477Z,0.50
2023-07-03T11:15:46.516Z,0.50
2023-07-03T11:16:46.555Z,0.51
2023-07-03T11:22:46.558Z,0.50
2023-07-03T11:23:46.572Z,0.50
2023-07-03T11:24:46.553Z,0.51
2023-07-03T11:28:46.523Z,0.55
2023-07-03T11:29:46.544Z,0.51
2023-07-03T11:30:46.585Z,0.50
2023-07-03T11:31:46.799Z,0.50
2023-07-03T11:32:46.623Z,0.51
2023-07-03T11:39:46.592Z,0.53
2023-07-03T11:40:46.626Z,0.53
2023-07-03T11:43:46.552Z,0.53
2023-07-03T11:44:46.564Z,0.51
2023-07-03T11:45:46.594Z,0.51
2023-07-03T11:46:46.708Z,0.52
2023-07-03T11:47:46.622Z,0.50
2023-07-03T11:48:46.715Z,0.53
2023-07-03T11:49:46.594Z,0.50
2023-07-03T11:50:46.597Z,0.53
2023-07-03T11:51:46.617Z,0.53
2023-07-03T11:52:46.614Z,0.55
2023-07-03T11:53:46.593Z,0.53
2023-07-03T11:54:46.595Z,0.53
2023-07-03T11:55:46.611Z,0.51
2023-07-03T11:56:46.585Z,0.53
2023-07-03T11:57:49.963Z,0.54
2023-07-03T11:58:47.596Z,0.54
2023-07-03T11:59:46.637Z,0.54
2023-07-03T12:00:46.672Z,0.55
2023-07-03T12:01:46.633Z,0.57
2023-07-03T12:02:46.744Z,0.57
2023-07-03T12:03:46.702Z,0.56
2023-07-03T12:04:49.098Z,0.56
2023-07-03T12:05:46.668Z,0.59
2023-07-03T12:06:46.660Z,0.57
2023-07-03T12:07:46.674Z,0.55
2023-07-03T12:08:46.678Z,0.57
2023-07-03T12:09:46.690Z,0.58
2023-07-03T12:10:46.713Z,0.59
2023-07-03T12:11:46.712Z,0.58
2023-07-03T12:12:46.716Z,0.59
2023-07-03T12:13:46.799Z,0.55
2023-07-03T12:14:46.713Z,0.55
2023-07-03T12:15:46.780Z,0.56
2023-07-03T12:16:46.768Z,0.57
2023-07-03T12:17:46.869Z,0.55
2023-07-03T12:18:46.751Z,0.54
2023-07-03T12:19:46.725Z,0.55
2023-07-03T12:20:46.767Z,0.55
2023-07-03T12:21:46.810Z,0.55
2023-07-03T12:22:46.799Z,0.57
2023-07-03T12:23:49.197Z,0.57
2023-07-03T12:24:47.109Z,0.57
2023-07-03T12:25:47.039Z,0.55
2023-07-03T12:26:47.062Z,0.56
2023-07-03T12:27:47.090Z,0.54
2023-07-03T12:28:47.086Z,0.51
2023-07-03T12:29:47.129Z,0.52
2023-07-03T12:30:47.202Z,0.51
2023-07-03T12:31:47.193Z,0.52
2023-07-03T12:32:47.233Z,0.52
2023-07-03T12:33:47.222Z,0.51
2023-07-03T12:34:47.286Z,0.51
2023-07-03T12:35:47.359Z,0.50
2023-07-03T12:36:50.598Z,0.50
2023-07-03T12:37:48.339Z,0.50
2023-07-03T12:38:47.325Z,0.50
2023-07-03T12:39:47.357Z,0.47
2023-07-03T12:40:47.352Z,0.46
2023-07-03T12:41:47.359Z,0.46
2023-07-03T12:42:47.390Z,0.52
2023-07-03T12:43:50.902Z,0.51
2023-07-03T12:44:48.396Z,0.51
2023-07-03T12:45:47.439Z,0.49
2023-07-03T12:46:47.468Z,0.49
2023-07-03T12:47:47.457Z,0.50
2023-07-03T12:48:47.350Z,0.51
2023-07-03T12:49:47.387Z,0.52
2023-07-03T12:50:47.373Z,0.50
2023-07-03T12:51:48.732Z,0.51
2023-07-03T12:52:47.358Z,0.51
2023-07-03T12:53:47.360Z,0.52
2023-07-03T12:54:47.850Z,0.50
2023-07-03T12:55:47.382Z,0.52
2023-07-03T12:56:47.387Z,0.51
2023-07-03T12:57:47.402Z,0.52
2023-07-03T12:58:47.379Z,0.51
2023-07-03T12:59:47.385Z,0.53
2023-07-03T13:00:47.424Z,0.53
2023-07-03T13:01:47.391Z,0.54
2023-07-03T13:02:47.443Z,0.54
2023-07-03T13:03:47.407Z,0.55
2023-07-03T13:04:47.497Z,0.56
2023-07-03T13:05:47.465Z,0.55
2023-07-03T13:06:47.453Z,0.55
2023-07-03T13:07:47.535Z,0.56
2023-07-03T13:08:47.537Z,0.56
2023-07-03T13:09:47.549Z,0.53
2023-07-03T13:10:47.589Z,0.56
2023-07-03T13:11:47.597Z,0.58
2023-07-03T13:12:47.646Z,0.59
2023-07-03T13:13:47.700Z,0.60
2023-07-03T13:14:47.688Z,0.60
2023-07-03T13:15:47.724Z,0.57
2023-07-03T13:16:47.763Z,0.60
2023-07-03T13:17:47.816Z,0.58
2023-07-03T13:18:47.787Z,0.61
2023-07-03T13:19:47.817Z,0.60
2023-07-03T13:20:47.820Z,0.58
2023-07-03T13:21:47.842Z,0.61
2023-07-03T13:22:47.876Z,0.57
2023-07-03T13:23:47.939Z,0.56
2023-07-03T13:24:47.977Z,0.57
2023-07-03T13:25:48.057Z,0.52
2023-07-03T13:26:47.997Z,0.55
2023-07-03T13:27:48.012Z,0.55
2023-07-03T13:28:47.995Z,0.56
2023-07-03T13:29:48.041Z,0.54
2023-07-03T13:30:48.126Z,0.55
2023-07-03T13:31:52.518Z,0.54
2023-07-03T13:32:48.101Z,0.54
2023-07-03T13:33:48.085Z,0.54
2023-07-03T13:34:48.065Z,0.54
2023-07-03T13:35:48.203Z,0.54
2023-07-03T13:36:48.076Z,0.55
2023-07-03T13:37:48.085Z,0.56
2023-07-03T13:38:48.078Z,0.56
2023-07-03T13:40:00.016Z,0.56
2023-07-03T13:40:49.016Z,0.56
2023-07-03T13:41:48.056Z,0.53
2023-07-03T13:42:48.014Z,0.53
2023-07-03T13:43:48.007Z,0.53
2023-07-03T13:44:48.052Z,0.55